sensor_id;sensor_type;location;lat;lon;timestamp;P1;durP1;ratioP1;P2;durP2;ratioP2
76119;SDS011;64852;48.092;-1.640;2023-12-29T00:01:23;25.23;;;23.43;;
76119;SDS011;64852;48.092;-1.640;2023-12-29T00:03:48;25.53;;;23.77;;
76119;SDS011;64852;48.092;-1.640;2023-12-29T00:06:14;25.77;;;24.00;;
76119;SDS011;64852;48.092;-1.640;2023-12-29T00:08:39;25.33;;;23.57;;
76119;SDS011;64852;48.092;-1.640;2023-12-29T00:11:05;26.20;;;24.47;;
76119;SDS011;64852;48.092;-1.640;2023-12-29T00:13:31;26.03;;;24.13;;
76119;SDS011;64852;48.092;-1.640;2023-12-29T00:15:56;26.30;;;24.47;;
76119;SDS011;64852;48.092;-1.640;2023-12-29T00:18:22;25.70;;;23.90;;
76119;SDS011;64852;48.092;-1.640;2023-12-29T00:20:49;27.15;;;25.13;;
76119;SDS011;64852;48.092;-1.640;2023-12-29T00:23:14;26.90;;;24.60;;
76119;SDS011;64852;48.092;-1.640;2023-12-29T00:25:40;26.08;;;24.27;;
76119;SDS011;64852;48.092;-1.640;2023-12-29T00:28:06;26.80;;;24.80;;
76119;SDS011;64852;48.092;-1.640;2023-12-29T00:30:32;25.77;;;23.87;;
76119;SDS011;64852;48.092;-1.640;2023-12-29T00:32:57;25.93;;;24.03;;
76119;SDS011;64852;48.092;-1.640;2023-12-29T00:35:23;27.00;;;25.00;;
76119;SDS011;64852;48.092;-1.640;2023-12-29T00:37:52;26.45;;;24.65;;
76119;SDS011;64852;48.092;-1.640;2023-12-29T00:40:17;26.20;;;24.20;;
76119;SDS011;64852;48.092;-1.640;2023-12-29T00:42:43;26.02;;;24.23;;
76119;SDS011;64852;48.092;-1.640;2023-12-29T00:45:08;25.38;;;23.67;;
76119;SDS011;64852;48.092;-1.640;2023-12-29T00:47:34;26.30;;;24.50;;
76119;SDS011;64852;48.092;-1.640;2023-12-29T00:50:00;26.53;;;24.53;;
76119;SDS011;64852;48.092;-1.640;2023-12-29T00:52:26;25.05;;;23.35;;
76119;SDS011;64852;48.092;-1.640;2023-12-29T00:54:52;26.60;;;24.80;;
76119;SDS011;64852;48.092;-1.640;2023-12-29T00:57:18;25.70;;;23.90;;
76119;SDS011;64852;48.092;-1.640;2023-12-29T00:59:46;28.00;;;25.90;;
76119;SDS011;64852;48.092;-1.640;2023-12-29T01:02:12;27.23;;;24.92;;
76119;SDS011;64852;48.092;-1.640;2023-12-29T01:04:38;26.47;;;24.47;;
76119;SDS011;64852;48.092;-1.640;2023-12-29T01:07:06;26.25;;;24.35;;
76119;SDS011;64852;48.092;-1.640;2023-12-29T01:09:32;25.10;;;23.23;;
76119;SDS011;64852;48.092;-1.640;2023-12-29T01:12:03;25.98;;;23.60;;
76119;SDS011;64852;48.092;-1.640;2023-12-29T01:14:29;26.88;;;24.88;;
76119;SDS011;64852;48.092;-1.640;2023-12-29T01:16:55;25.77;;;23.98;;
76119;SDS011;64852;48.092;-1.640;2023-12-29T01:19:20;36.65;;;34.05;;
76119;SDS011;64852;48.092;-1.640;2023-12-29T01:21:46;37.63;;;35.22;;
76119;SDS011;64852;48.092;-1.640;2023-12-29T01:24:11;38.35;;;35.95;;
76119;SDS011;64852;48.092;-1.640;2023-12-29T01:26:37;39.35;;;36.53;;
76119;SDS011;64852;48.092;-1.640;2023-12-29T01:29:03;41.28;;;38.28;;
76119;SDS011;64852;48.092;-1.640;2023-12-29T01:31:29;41.17;;;38.28;;
76119;SDS011;64852;48.092;-1.640;2023-12-29T01:33:55;26.90;;;24.90;;
76119;SDS011;64852;48.092;-1.640;2023-12-29T01:36:21;27.65;;;25.75;;
76119;SDS011;64852;48.092;-1.640;2023-12-29T01:38:47;26.52;;;24.52;;
76119;SDS011;64852;48.092;-1.640;2023-12-29T01:41:12;26.52;;;24.73;;
76119;SDS011;64852;48.092;-1.640;2023-12-29T01:46:26;27.85;;;25.95;;
76119;SDS011;64852;48.092;-1.640;2023-12-29T01:48:54;28.90;;;26.30;;
76119;SDS011;64852;48.092;-1.640;2023-12-29T01:51:20;26.98;;;25.10;;
76119;SDS011;64852;48.092;-1.640;2023-12-29T01:53:48;28.70;;;26.60;;
76119;SDS011;64852;48.092;-1.640;2023-12-29T01:56:15;27.75;;;25.85;;
76119;SDS011;64852;48.092;-1.640;2023-12-29T01:58:41;27.98;;;25.77;;
76119;SDS011;64852;48.092;-1.640;2023-12-29T02:01:08;26.50;;;24.70;;
76119;SDS011;64852;48.092;-1.640;2023-12-29T02:03:34;28.27;;;26.30;;
76119;SDS011;64852;48.092;-1.640;2023-12-29T02:06:00;27.43;;;25.53;;
76119;SDS011;64852;48.092;-1.640;2023-12-29T02:08:26;27.63;;;25.73;;
76119;SDS011;64852;48.092;-1.640;2023-12-29T02:10:53;27.90;;;25.90;;
76119;SDS011;64852;48.092;-1.640;2023-12-29T02:13:20;29.00;;;26.50;;
76119;SDS011;64852;48.092;-1.640;2023-12-29T02:15:47;28.83;;;26.42;;
76119;SDS011;64852;48.092;-1.640;2023-12-29T02:18:15;30.10;;;27.30;;
76119;SDS011;64852;48.092;-1.640;2023-12-29T02:20:43;29.08;;;26.98;;
76119;SDS011;64852;48.092;-1.640;2023-12-29T02:23:09;29.20;;;27.10;;
76119;SDS011;64852;48.092;-1.640;2023-12-29T02:25:35;28.85;;;26.77;;
76119;SDS011;64852;48.092;-1.640;2023-12-29T02:28:06;29.35;;;27.10;;
76119;SDS011;64852;48.092;-1.640;2023-12-29T02:30:45;28.38;;;26.33;;
76119;SDS011;64852;48.092;-1.640;2023-12-29T02:33:14;28.83;;;26.73;;
76119;SDS011;64852;48.092;-1.640;2023-12-29T02:35:45;28.50;;;26.50;;
76119;SDS011;64852;48.092;-1.640;2023-12-29T02:38:11;28.50;;;26.50;;
76119;SDS011;64852;48.092;-1.640;2023-12-29T02:40:38;29.55;;;27.17;;
76119;SDS011;64852;48.092;-1.640;2023-12-29T02:43:04;29.13;;;26.95;;
76119;SDS011;64852;48.092;-1.640;2023-12-29T02:45:29;28.00;;;26.00;;
76119;SDS011;64852;48.092;-1.640;2023-12-29T02:47:55;27.48;;;25.58;;
76119;SDS011;64852;48.092;-1.640;2023-12-29T02:50:20;28.85;;;26.75;;
76119;SDS011;64852;48.092;-1.640;2023-12-29T02:52:46;27.92;;;25.92;;
76119;SDS011;64852;48.092;-1.640;2023-12-29T02:55:12;28.95;;;26.85;;
76119;SDS011;64852;48.092;-1.640;2023-12-29T02:57:38;27.60;;;25.60;;
76119;SDS011;64852;48.092;-1.640;2023-12-29T03:00:04;28.60;;;26.45;;
76119;SDS011;64852;48.092;-1.640;2023-12-29T03:02:31;28.70;;;26.60;;
76119;SDS011;64852;48.092;-1.640;2023-12-29T03:04:57;28.90;;;26.80;;
76119;SDS011;64852;48.092;-1.640;2023-12-29T03:07:23;40.40;;;37.60;;
76119;SDS011;64852;48.092;-1.640;2023-12-29T03:09:49;39.30;;;36.30;;
76119;SDS011;64852;48.092;-1.640;2023-12-29T03:12:14;39.70;;;37.00;;
76119;SDS011;64852;48.092;-1.640;2023-12-29T03:14:40;40.27;;;37.57;;
76119;SDS011;64852;48.092;-1.640;2023-12-29T03:17:05;43.33;;;40.33;;
76119;SDS011;64852;48.092;-1.640;2023-12-29T03:19:31;41.57;;;38.87;;
76119;SDS011;64852;48.092;-1.640;2023-12-29T03:21:56;30.53;;;27.83;;
76119;SDS011;64852;48.092;-1.640;2023-12-29T03:24:22;28.47;;;26.37;;
76119;SDS011;64852;48.092;-1.640;2023-12-29T03:26:48;29.40;;;27.10;;
76119;SDS011;64852;48.092;-1.640;2023-12-29T03:34:05;26.83;;;24.92;;
76119;SDS011;64852;48.092;-1.640;2023-12-29T03:41:22;27.67;;;25.67;;
76119;SDS011;64852;48.092;-1.640;2023-12-29T03:43:47;27.63;;;25.00;;
76119;SDS011;64852;48.092;-1.640;2023-12-29T04:05:51;25.92;;;24.13;;
76119;SDS011;64852;48.092;-1.640;2023-12-29T09:14:12;22.48;;;20.90;;
76119;SDS011;64852;48.092;-1.640;2023-12-29T09:16:38;26.50;;;24.40;;
76119;SDS011;64852;48.092;-1.640;2023-12-29T09:26:20;23.95;;;22.15;;
76119;SDS011;64852;48.092;-1.640;2023-12-29T09:31:11;24.15;;;22.35;;
76119;SDS011;64852;48.092;-1.640;2023-12-29T09:55:36;30.25;;;28.15;;
76119;SDS011;64852;48.092;-1.640;2023-12-29T10:00:31;24.20;;;22.30;;
76119;SDS011;64852;48.092;-1.640;2023-12-29T10:02:58;24.58;;;22.58;;
76119;SDS011;64852;48.092;-1.640;2023-12-29T10:10:17;27.08;;;24.88;;
76119;SDS011;64852;48.092;-1.640;2023-12-29T10:12:48;28.75;;;26.15;;
76119;SDS011;64852;48.092;-1.640;2023-12-29T10:15:26;28.73;;;26.20;;
76119;SDS011;64852;48.092;-1.640;2023-12-29T10:18:07;28.02;;;25.52;;
76119;SDS011;64852;48.092;-1.640;2023-12-29T10:23:13;26.27;;;24.17;;
76119;SDS011;64852;48.092;-1.640;2023-12-29T10:25:43;28.48;;;25.58;;
76119;SDS011;64852;48.092;-1.640;2023-12-29T10:28:09;28.07;;;25.47;;
76119;SDS011;64852;48.092;-1.640;2023-12-29T10:30:35;25.90;;;23.90;;
76119;SDS011;64852;48.092;-1.640;2023-12-29T10:33:02;26.73;;;24.63;;
76119;SDS011;64852;48.092;-1.640;2023-12-29T10:35:29;25.70;;;23.70;;
76119;SDS011;64852;48.092;-1.640;2023-12-29T10:38:07;26.33;;;24.33;;
76119;SDS011;64852;48.092;-1.640;2023-12-29T10:40:34;25.90;;;23.98;;
76119;SDS011;64852;48.092;-1.640;2023-12-29T10:45:31;26.13;;;24.17;;
76119;SDS011;64852;48.092;-1.640;2023-12-29T10:47:57;26.00;;;23.85;;
76119;SDS011;64852;48.092;-1.640;2023-12-29T10:50:25;24.52;;;22.63;;
76119;SDS011;64852;48.092;-1.640;2023-12-29T11:00:29;25.45;;;23.45;;
76119;SDS011;64852;48.092;-1.640;2023-12-29T11:02:55;26.42;;;24.35;;
76119;SDS011;64852;48.092;-1.640;2023-12-29T11:05:24;27.03;;;24.73;;
76119;SDS011;64852;48.092;-1.640;2023-12-29T11:07:50;28.63;;;26.02;;
76119;SDS011;64852;48.092;-1.640;2023-12-29T11:10:19;28.33;;;25.90;;
76119;SDS011;64852;48.092;-1.640;2023-12-29T11:15:12;27.90;;;25.50;;
76119;SDS011;64852;48.092;-1.640;2023-12-29T11:17:39;27.65;;;25.25;;
76119;SDS011;64852;48.092;-1.640;2023-12-29T11:20:15;27.65;;;25.30;;
76119;SDS011;64852;48.092;-1.640;2023-12-29T11:22:42;26.70;;;24.40;;
76119;SDS011;64852;48.092;-1.640;2023-12-29T11:25:10;27.35;;;25.05;;
76119;SDS011;64852;48.092;-1.640;2023-12-29T11:27:37;25.25;;;23.25;;
76119;SDS011;64852;48.092;-1.640;2023-12-29T11:30:03;34.15;;;26.58;;
76119;SDS011;64852;48.092;-1.640;2023-12-29T11:32:45;26.80;;;24.50;;
76119;SDS011;64852;48.092;-1.640;2023-12-29T11:36:24;25.60;;;23.60;;
76119;SDS011;64852;48.092;-1.640;2023-12-29T11:41:26;25.40;;;23.30;;
76119;SDS011;64852;48.092;-1.640;2023-12-29T11:44:06;26.75;;;24.35;;
76119;SDS011;64852;48.092;-1.640;2023-12-29T11:46:32;24.67;;;22.70;;
76119;SDS011;64852;48.092;-1.640;2023-12-29T11:48:59;28.50;;;23.90;;
76119;SDS011;64852;48.092;-1.640;2023-12-29T11:51:41;25.65;;;23.55;;
76119;SDS011;64852;48.092;-1.640;2023-12-29T11:54:08;24.15;;;22.25;;
76119;SDS011;64852;48.092;-1.640;2023-12-29T11:56:43;28.00;;;25.77;;
76119;SDS011;64852;48.092;-1.640;2023-12-29T11:59:16;26.20;;;24.10;;
76119;SDS011;64852;48.092;-1.640;2023-12-29T12:01:46;25.63;;;23.30;;
76119;SDS011;64852;48.092;-1.640;2023-12-29T12:09:47;26.60;;;24.60;;
76119;SDS011;64852;48.092;-1.640;2023-12-29T12:12:14;25.08;;;23.08;;
76119;SDS011;64852;48.092;-1.640;2023-12-29T12:15:00;25.98;;;23.88;;
76119;SDS011;64852;48.092;-1.640;2023-12-29T12:17:31;26.70;;;24.52;;
76119;SDS011;64852;48.092;-1.640;2023-12-29T12:20:03;25.40;;;23.38;;
76119;SDS011;64852;48.092;-1.640;2023-12-29T12:22:33;27.73;;;25.33;;
76119;SDS011;64852;48.092;-1.640;2023-12-29T12:25:00;26.25;;;24.25;;
76119;SDS011;64852;48.092;-1.640;2023-12-29T12:27:27;26.50;;;24.42;;
76119;SDS011;64852;48.092;-1.640;2023-12-29T12:29:54;31.15;;;28.90;;
76119;SDS011;64852;48.092;-1.640;2023-12-29T12:32:23;31.52;;;29.23;;
76119;SDS011;64852;48.092;-1.640;2023-12-29T12:34:50;31.55;;;29.15;;
76119;SDS011;64852;48.092;-1.640;2023-12-29T12:37:19;31.77;;;29.48;;
76119;SDS011;64852;48.092;-1.640;2023-12-29T12:39:49;32.55;;;30.25;;
76119;SDS011;64852;48.092;-1.640;2023-12-29T12:42:18;29.42;;;27.23;;
76119;SDS011;64852;48.092;-1.640;2023-12-29T12:47:19;24.42;;;22.52;;
76119;SDS011;64852;48.092;-1.640;2023-12-29T12:49:50;24.92;;;23.02;;
76119;SDS011;64852;48.092;-1.640;2023-12-29T12:54:42;24.02;;;22.23;;
76119;SDS011;64852;48.092;-1.640;2023-12-29T12:57:08;25.70;;;23.80;;
76119;SDS011;64852;48.092;-1.640;2023-12-29T12:59:33;26.40;;;24.48;;
76119;SDS011;64852;48.092;-1.640;2023-12-29T13:04:25;26.63;;;24.40;;
76119;SDS011;64852;48.092;-1.640;2023-12-29T13:06:51;28.48;;;26.27;;
76119;SDS011;64852;48.092;-1.640;2023-12-29T13:09:17;34.17;;;31.20;;
76119;SDS011;64852;48.092;-1.640;2023-12-29T13:11:44;35.40;;;32.00;;
76119;SDS011;64852;48.092;-1.640;2023-12-29T13:16:54;37.13;;;33.65;;
76119;SDS011;64852;48.092;-1.640;2023-12-29T13:19:23;36.40;;;32.63;;
76119;SDS011;64852;48.092;-1.640;2023-12-29T14:06:41;28.80;;;26.20;;
76119;SDS011;64852;48.092;-1.640;2023-12-29T14:09:14;25.85;;;23.35;;
76119;SDS011;64852;48.092;-1.640;2023-12-29T14:11:48;26.90;;;24.30;;
76119;SDS011;64852;48.092;-1.640;2023-12-29T14:14:14;30.65;;;26.48;;
76119;SDS011;64852;48.092;-1.640;2023-12-29T14:16:46;31.83;;;28.50;;
76119;SDS011;64852;48.092;-1.640;2023-12-29T14:19:11;30.37;;;27.27;;
76119;SDS011;64852;48.092;-1.640;2023-12-29T14:21:37;29.00;;;25.90;;
76119;SDS011;64852;48.092;-1.640;2023-12-29T14:29:07;25.67;;;23.10;;
76119;SDS011;64852;48.092;-1.640;2023-12-29T14:34:04;35.25;;;30.27;;
76119;SDS011;64852;48.092;-1.640;2023-12-29T14:36:34;36.20;;;30.90;;
76119;SDS011;64852;48.092;-1.640;2023-12-29T18:18:02;38.50;;;22.73;;
76119;SDS011;64852;48.092;-1.640;2023-12-29T18:20:29;28.40;;;25.80;;
76119;SDS011;64852;48.092;-1.640;2023-12-29T18:22:55;33.03;;;29.93;;
76119;SDS011;64852;48.092;-1.640;2023-12-29T18:25:20;35.77;;;32.30;;
76119;SDS011;64852;48.092;-1.640;2023-12-29T18:27:46;38.03;;;34.33;;
76119;SDS011;64852;48.092;-1.640;2023-12-29T18:30:11;38.10;;;34.60;;
76119;SDS011;64852;48.092;-1.640;2023-12-29T18:32:37;38.15;;;34.75;;
76119;SDS011;64852;48.092;-1.640;2023-12-29T18:35:03;39.33;;;35.43;;
76119;SDS011;64852;48.092;-1.640;2023-12-29T18:37:29;40.95;;;37.45;;
76119;SDS011;64852;48.092;-1.640;2023-12-29T18:39:55;33.78;;;30.23;;
76119;SDS011;64852;48.092;-1.640;2023-12-29T18:42:21;33.53;;;30.33;;
76119;SDS011;64852;48.092;-1.640;2023-12-29T18:44:47;32.85;;;29.90;;
76119;SDS011;64852;48.092;-1.640;2023-12-29T18:47:13;34.58;;;31.52;;
76119;SDS011;64852;48.092;-1.640;2023-12-29T18:49:38;34.35;;;31.17;;
76119;SDS011;64852;48.092;-1.640;2023-12-29T18:52:04;34.90;;;32.00;;
76119;SDS011;64852;48.092;-1.640;2023-12-29T18:54:30;35.23;;;32.23;;
76119;SDS011;64852;48.092;-1.640;2023-12-29T18:56:59;33.92;;;31.02;;
76119;SDS011;64852;48.092;-1.640;2023-12-29T19:04:20;29.70;;;27.20;;
76119;SDS011;64852;48.092;-1.640;2023-12-29T19:06:45;34.03;;;30.92;;
76119;SDS011;64852;48.092;-1.640;2023-12-29T19:09:12;34.30;;;31.00;;
76119;SDS011;64852;48.092;-1.640;2023-12-29T19:11:38;34.42;;;31.23;;
76119;SDS011;64852;48.092;-1.640;2023-12-29T19:14:04;32.00;;;29.10;;
76119;SDS011;64852;48.092;-1.640;2023-12-29T19:16:31;33.15;;;30.17;;
76119;SDS011;64852;48.092;-1.640;2023-12-29T19:18:57;32.90;;;30.00;;
76119;SDS011;64852;48.092;-1.640;2023-12-29T19:21:24;33.15;;;30.35;;
76119;SDS011;64852;48.092;-1.640;2023-12-29T19:23:53;33.97;;;30.95;;
76119;SDS011;64852;48.092;-1.640;2023-12-29T19:26:19;34.35;;;31.45;;
76119;SDS011;64852;48.092;-1.640;2023-12-29T19:28:47;33.72;;;30.83;;
76119;SDS011;64852;48.092;-1.640;2023-12-29T22:58:02;29.23;;;22.50;;
76119;SDS011;64852;48.092;-1.640;2023-12-29T23:00:28;32.53;;;25.60;;
76119;SDS011;64852;48.092;-1.640;2023-12-29T23:02:55;30.27;;;27.37;;
76119;SDS011;64852;48.092;-1.640;2023-12-29T23:05:21;33.92;;;30.48;;
76119;SDS011;64852;48.092;-1.640;2023-12-29T23:07:47;32.28;;;29.08;;
76119;SDS011;64852;48.092;-1.640;2023-12-29T23:10:12;33.85;;;30.25;;
76119;SDS011;64852;48.092;-1.640;2023-12-29T23:12:38;32.17;;;29.08;;
76119;SDS011;64852;48.092;-1.640;2023-12-29T23:15:03;34.22;;;30.73;;
76119;SDS011;64852;48.092;-1.640;2023-12-29T23:17:30;33.60;;;30.70;;
76119;SDS011;64852;48.092;-1.640;2023-12-29T23:19:55;33.15;;;30.20;;
76119;SDS011;64852;48.092;-1.640;2023-12-29T23:22:21;31.88;;;29.08;;
76119;SDS011;64852;48.092;-1.640;2023-12-29T23:24:48;33.53;;;30.67;;
76119;SDS011;64852;48.092;-1.640;2023-12-29T23:27:14;37.58;;;34.08;;
76119;SDS011;64852;48.092;-1.640;2023-12-29T23:29:39;35.20;;;31.90;;
76119;SDS011;64852;48.092;-1.640;2023-12-29T23:32:05;33.87;;;30.73;;
76119;SDS011;64852;48.092;-1.640;2023-12-29T23:34:31;34.83;;;31.23;;
76119;SDS011;64852;48.092;-1.640;2023-12-29T23:36:57;57.33;;;52.93;;
76119;SDS011;64852;48.092;-1.640;2023-12-29T23:39:23;56.00;;;51.70;;
76119;SDS011;64852;48.092;-1.640;2023-12-29T23:41:49;53.37;;;49.17;;
76119;SDS011;64852;48.092;-1.640;2023-12-29T23:44:14;58.40;;;54.20;;
76119;SDS011;64852;48.092;-1.640;2023-12-29T23:46:40;61.17;;;56.72;;
76119;SDS011;64852;48.092;-1.640;2023-12-29T23:49:05;57.90;;;53.70;;
76119;SDS011;64852;48.092;-1.640;2023-12-29T23:51:31;33.40;;;30.40;;
76119;SDS011;64852;48.092;-1.640;2023-12-29T23:53:58;32.30;;;29.20;;
76119;SDS011;64852;48.092;-1.640;2023-12-29T23:56:23;33.50;;;30.30;;
76119;SDS011;64852;48.092;-1.640;2023-12-29T23:58:49;32.37;;;29.27;;
